sensor_id;sensor_type;location;lat;lon;timestamp;P1;durP1;ratioP1;P2;durP2;ratioP2
2602;SDS011;1311;47.966;7.958;2022-11-20T10:12:02;25.53;;;2.97;;
2602;SDS011;1311;47.966;7.958;2022-11-20T10:14:41;4.60;;;2.50;;
2602;SDS011;1311;47.966;7.958;2022-11-20T10:17:23;10.70;;;2.90;;
2602;SDS011;1311;47.966;7.958;2022-11-20T10:20:09;5.20;;;2.40;;
2602;SDS011;1311;47.966;7.958;2022-11-20T10:22:47;4.60;;;2.10;;
2602;SDS011;1311;47.966;7.958;2022-11-20T10:25:18;5.60;;;2.10;;
2602;SDS011;1311;47.966;7.958;2022-11-20T10:27:53;4.20;;;2.00;;
2602;SDS011;1311;47.966;7.958;2022-11-20T10:30:23;3.27;;;1.80;;
2602;SDS011;1311;47.966;7.958;2022-11-20T10:32:51;3.00;;;1.40;;
2602;SDS011;1311;47.966;7.958;2022-11-20T10:35:20;3.93;;;1.90;;
2602;SDS011;1311;47.966;7.958;2022-11-20T10:37:49;7.60;;;1.87;;
2602;SDS011;1311;47.966;7.958;2022-11-20T10:40:20;6.10;;;2.00;;
2602;SDS011;1311;47.966;7.958;2022-11-20T10:42:50;5.03;;;2.13;;
2602;SDS011;1311;47.966;7.958;2022-11-20T10:45:21;5.97;;;1.90;;
2602;SDS011;1311;47.966;7.958;2022-11-20T10:47:54;2.60;;;1.30;;
2602;SDS011;1311;47.966;7.958;2022-11-20T10:50:23;6.17;;;1.60;;
2602;SDS011;1311;47.966;7.958;2022-11-20T10:52:52;3.60;;;1.60;;
2602;SDS011;1311;47.966;7.958;2022-11-20T10:55:27;2.30;;;1.63;;
2602;SDS011;1311;47.966;7.958;2022-11-20T10:57:58;2.27;;;1.80;;
2602;SDS011;1311;47.966;7.958;2022-11-20T11:00:30;1.97;;;1.77;;
2602;SDS011;1311;47.966;7.958;2022-11-20T11:02:57;3.47;;;1.60;;
2602;SDS011;1311;47.966;7.958;2022-11-20T11:05:31;4.05;;;1.88;;
2602;SDS011;1311;47.966;7.958;2022-11-20T11:08:02;4.23;;;2.30;;
2602;SDS011;1311;47.966;7.958;2022-11-20T11:10:35;8.10;;;1.80;;
2602;SDS011;1311;47.966;7.958;2022-11-20T11:13:07;8.20;;;2.00;;
2602;SDS011;1311;47.966;7.958;2022-11-20T11:15:37;2.07;;;1.50;;
2602;SDS011;1311;47.966;7.958;2022-11-20T11:18:04;4.33;;;1.53;;
2602;SDS011;1311;47.966;7.958;2022-11-20T11:20:31;3.20;;;1.60;;
2602;SDS011;1311;47.966;7.958;2022-11-20T11:22:58;3.80;;;1.63;;
2602;SDS011;1311;47.966;7.958;2022-11-20T11:26:19;5.20;;;2.00;;
2602;SDS011;1311;47.966;7.958;2022-11-20T11:28:52;3.90;;;1.70;;
2602;SDS011;1311;47.966;7.958;2022-11-20T11:31:24;2.33;;;1.70;;
2602;SDS011;1311;47.966;7.958;2022-11-20T11:33:52;3.10;;;1.93;;
2602;SDS011;1311;47.966;7.958;2022-11-20T11:38:01;2.17;;;1.63;;
2602;SDS011;1311;47.966;7.958;2022-11-20T11:40:31;3.83;;;1.70;;
2602;SDS011;1311;47.966;7.958;2022-11-20T11:43:00;3.67;;;1.70;;
2602;SDS011;1311;47.966;7.958;2022-11-20T11:45:29;5.93;;;1.97;;
2602;SDS011;1311;47.966;7.958;2022-11-20T11:47:56;2.20;;;1.43;;
2602;SDS011;1311;47.966;7.958;2022-11-20T11:50:26;6.03;;;1.50;;
2602;SDS011;1311;47.966;7.958;2022-11-20T11:52:58;2.50;;;1.53;;
2602;SDS011;1311;47.966;7.958;2022-11-20T11:55:34;2.35;;;1.40;;
2602;SDS011;1311;47.966;7.958;2022-11-20T11:58:10;2.27;;;1.70;;
2602;SDS011;1311;47.966;7.958;2022-11-20T12:00:57;3.63;;;1.60;;
2602;SDS011;1311;47.966;7.958;2022-11-20T12:03:32;2.37;;;1.57;;
2602;SDS011;1311;47.966;7.958;2022-11-20T12:06:04;2.20;;;1.70;;
2602;SDS011;1311;47.966;7.958;2022-11-20T12:08:40;4.07;;;1.73;;
2602;SDS011;1311;47.966;7.958;2022-11-20T12:11:11;2.67;;;1.43;;
2602;SDS011;1311;47.966;7.958;2022-11-20T12:13:47;2.27;;;1.33;;
2602;SDS011;1311;47.966;7.958;2022-11-20T12:16:19;1.60;;;1.20;;
2602;SDS011;1311;47.966;7.958;2022-11-20T12:18:47;3.50;;;1.73;;
2602;SDS011;1311;47.966;7.958;2022-11-20T12:21:20;2.13;;;1.30;;
2602;SDS011;1311;47.966;7.958;2022-11-20T12:24:00;1.60;;;1.40;;
2602;SDS011;1311;47.966;7.958;2022-11-20T12:26:55;2.40;;;1.40;;
2602;SDS011;1311;47.966;7.958;2022-11-20T12:29:32;1.60;;;1.13;;
2602;SDS011;1311;47.966;7.958;2022-11-20T12:32:19;1.83;;;1.20;;
2602;SDS011;1311;47.966;7.958;2022-11-20T12:35:11;1.73;;;1.40;;
2602;SDS011;1311;47.966;7.958;2022-11-20T12:37:55;2.07;;;1.47;;
2602;SDS011;1311;47.966;7.958;2022-11-20T12:40:41;1.67;;;1.27;;
2602;SDS011;1311;47.966;7.958;2022-11-20T12:43:15;2.57;;;1.40;;
2602;SDS011;1311;47.966;7.958;2022-11-20T12:46:13;1.90;;;1.40;;
2602;SDS011;1311;47.966;7.958;2022-11-20T12:51:41;2.97;;;1.60;;
2602;SDS011;1311;47.966;7.958;2022-11-20T12:54:29;1.40;;;1.20;;
2602;SDS011;1311;47.966;7.958;2022-11-20T12:57:13;1.33;;;1.23;;
2602;SDS011;1311;47.966;7.958;2022-11-20T12:59:49;1.60;;;1.50;;
2602;SDS011;1311;47.966;7.958;2022-11-20T13:02:30;2.53;;;1.30;;
2602;SDS011;1311;47.966;7.958;2022-11-20T13:07:47;1.80;;;1.20;;
2602;SDS011;1311;47.966;7.958;2022-11-20T13:10:18;1.37;;;1.23;;
2602;SDS011;1311;47.966;7.958;2022-11-20T13:12:51;1.73;;;1.37;;
2602;SDS011;1311;47.966;7.958;2022-11-20T13:15:29;1.60;;;1.30;;
2602;SDS011;1311;47.966;7.958;2022-11-20T13:18:04;1.53;;;1.43;;
2602;SDS011;1311;47.966;7.958;2022-11-20T13:20:35;2.77;;;1.27;;
2602;SDS011;1311;47.966;7.958;2022-11-20T13:23:07;1.73;;;1.30;;
2602;SDS011;1311;47.966;7.958;2022-11-20T13:25:34;1.93;;;1.47;;
2602;SDS011;1311;47.966;7.958;2022-11-20T13:28:04;1.20;;;1.10;;
2602;SDS011;1311;47.966;7.958;2022-11-20T13:30:52;1.47;;;1.07;;
2602;SDS011;1311;47.966;7.958;2022-11-20T13:33:23;1.90;;;1.43;;
2602;SDS011;1311;47.966;7.958;2022-11-20T13:35:55;2.50;;;1.77;;
2602;SDS011;1311;47.966;7.958;2022-11-20T13:38:23;5.10;;;1.77;;
2602;SDS011;1311;47.966;7.958;2022-11-20T13:40:50;1.80;;;1.40;;
2602;SDS011;1311;47.966;7.958;2022-11-20T13:43:21;4.43;;;2.33;;
2602;SDS011;1311;47.966;7.958;2022-11-20T13:45:56;2.20;;;2.00;;
2602;SDS011;1311;47.966;7.958;2022-11-20T13:48:25;2.60;;;2.00;;
2602;SDS011;1311;47.966;7.958;2022-11-20T13:50:58;3.53;;;2.70;;
2602;SDS011;1311;47.966;7.958;2022-11-20T13:53:40;5.13;;;2.60;;
2602;SDS011;1311;47.966;7.958;2022-11-20T13:56:20;2.43;;;2.23;;
2602;SDS011;1311;47.966;7.958;2022-11-20T13:58:55;2.53;;;2.33;;
2602;SDS011;1311;47.966;7.958;2022-11-20T14:01:30;2.83;;;2.63;;
2602;SDS011;1311;47.966;7.958;2022-11-20T14:03:59;4.00;;;2.40;;
2602;SDS011;1311;47.966;7.958;2022-11-20T14:06:27;4.00;;;2.50;;
2602;SDS011;1311;47.966;7.958;2022-11-20T14:08:57;5.13;;;2.00;;
2602;SDS011;1311;47.966;7.958;2022-11-20T14:11:25;2.63;;;2.10;;
2602;SDS011;1311;47.966;7.958;2022-11-20T14:13:55;2.47;;;2.20;;
2602;SDS011;1311;47.966;7.958;2022-11-20T14:16:24;2.30;;;2.00;;
2602;SDS011;1311;47.966;7.958;2022-11-20T14:18:53;1.90;;;1.80;;
2602;SDS011;1311;47.966;7.958;2022-11-20T14:21:24;3.30;;;1.90;;
2602;SDS011;1311;47.966;7.958;2022-11-20T14:23:52;2.20;;;2.00;;
2602;SDS011;1311;47.966;7.958;2022-11-20T14:26:20;3.90;;;2.40;;
2602;SDS011;1311;47.966;7.958;2022-11-20T14:28:47;2.70;;;1.93;;
2602;SDS011;1311;47.966;7.958;2022-11-20T14:31:18;3.23;;;2.20;;
2602;SDS011;1311;47.966;7.958;2022-11-20T14:33:50;2.33;;;2.00;;
2602;SDS011;1311;47.966;7.958;2022-11-20T14:36:18;2.80;;;2.27;;
2602;SDS011;1311;47.966;7.958;2022-11-20T14:38:48;2.30;;;2.10;;
2602;SDS011;1311;47.966;7.958;2022-11-20T14:41:16;2.57;;;2.37;;
2602;SDS011;1311;47.966;7.958;2022-11-20T14:43:45;3.77;;;1.93;;
2602;SDS011;1311;47.966;7.958;2022-11-20T14:46:13;2.37;;;2.17;;
2602;SDS011;1311;47.966;7.958;2022-11-20T14:48:43;3.43;;;2.00;;
2602;SDS011;1311;47.966;7.958;2022-11-20T14:51:22;3.03;;;2.00;;
2602;SDS011;1311;47.966;7.958;2022-11-20T14:53:52;2.47;;;2.00;;
2602;SDS011;1311;47.966;7.958;2022-11-20T14:56:20;3.80;;;2.00;;
2602;SDS011;1311;47.966;7.958;2022-11-20T14:58:55;4.30;;;2.30;;
2602;SDS011;1311;47.966;7.958;2022-11-20T15:01:25;2.60;;;1.60;;
2602;SDS011;1311;47.966;7.958;2022-11-20T15:03:58;2.33;;;2.07;;
2602;SDS011;1311;47.966;7.958;2022-11-20T15:06:26;2.37;;;2.00;;
2602;SDS011;1311;47.966;7.958;2022-11-20T15:08:54;1.87;;;1.77;;
2602;SDS011;1311;47.966;7.958;2022-11-20T15:11:23;3.10;;;2.20;;
2602;SDS011;1311;47.966;7.958;2022-11-20T15:13:56;1.80;;;1.70;;
2602;SDS011;1311;47.966;7.958;2022-11-20T15:16:24;2.47;;;1.97;;
2602;SDS011;1311;47.966;7.958;2022-11-20T15:18:53;2.90;;;1.60;;
2602;SDS011;1311;47.966;7.958;2022-11-20T15:21:21;2.43;;;2.13;;
2602;SDS011;1311;47.966;7.958;2022-11-20T15:23:48;1.80;;;1.70;;
2602;SDS011;1311;47.966;7.958;2022-11-20T15:26:15;2.60;;;1.97;;
2602;SDS011;1311;47.966;7.958;2022-11-20T15:28:47;2.07;;;1.87;;
2602;SDS011;1311;47.966;7.958;2022-11-20T15:31:17;1.80;;;1.70;;
2602;SDS011;1311;47.966;7.958;2022-11-20T15:33:45;1.90;;;1.73;;
2602;SDS011;1311;47.966;7.958;2022-11-20T15:36:13;2.97;;;2.10;;
2602;SDS011;1311;47.966;7.958;2022-11-20T15:38:41;2.33;;;1.90;;
2602;SDS011;1311;47.966;7.958;2022-11-20T15:41:08;2.30;;;2.10;;
2602;SDS011;1311;47.966;7.958;2022-11-20T15:43:35;1.73;;;1.60;;
2602;SDS011;1311;47.966;7.958;2022-11-20T15:46:03;1.80;;;1.70;;
2602;SDS011;1311;47.966;7.958;2022-11-20T15:48:32;1.97;;;1.67;;
2602;SDS011;1311;47.966;7.958;2022-11-20T15:51:03;2.27;;;2.07;;
2602;SDS011;1311;47.966;7.958;2022-11-20T15:53:38;4.17;;;1.70;;
2602;SDS011;1311;47.966;7.958;2022-11-20T15:56:07;2.03;;;1.70;;
2602;SDS011;1311;47.966;7.958;2022-11-20T15:58:38;2.00;;;1.80;;
2602;SDS011;1311;47.966;7.958;2022-11-20T16:01:05;1.90;;;1.80;;
2602;SDS011;1311;47.966;7.958;2022-11-20T16:03:32;1.60;;;1.50;;
2602;SDS011;1311;47.966;7.958;2022-11-20T16:05:58;2.37;;;1.87;;
2602;SDS011;1311;47.966;7.958;2022-11-20T16:08:25;1.80;;;1.70;;
2602;SDS011;1311;47.966;7.958;2022-11-20T16:10:52;1.70;;;1.60;;
2602;SDS011;1311;47.966;7.958;2022-11-20T16:13:20;2.00;;;1.87;;
2602;SDS011;1311;47.966;7.958;2022-11-20T16:16:04;1.70;;;1.60;;
2602;SDS011;1311;47.966;7.958;2022-11-20T16:18:34;3.87;;;1.87;;
2602;SDS011;1311;47.966;7.958;2022-11-20T16:21:00;2.53;;;1.40;;
2602;SDS011;1311;47.966;7.958;2022-11-20T16:23:27;2.93;;;1.67;;
2602;SDS011;1311;47.966;7.958;2022-11-20T16:25:55;1.80;;;1.70;;
2602;SDS011;1311;47.966;7.958;2022-11-20T16:28:23;1.90;;;1.80;;
2602;SDS011;1311;47.966;7.958;2022-11-20T16:30:49;1.77;;;1.67;;
2602;SDS011;1311;47.966;7.958;2022-11-20T16:33:16;1.83;;;1.70;;
2602;SDS011;1311;47.966;7.958;2022-11-20T16:35:43;1.70;;;1.57;;
2602;SDS011;1311;47.966;7.958;2022-11-20T16:38:10;1.70;;;1.60;;
2602;SDS011;1311;47.966;7.958;2022-11-20T16:40:37;1.57;;;1.40;;
2602;SDS011;1311;47.966;7.958;2022-11-20T16:43:06;1.83;;;1.47;;
2602;SDS011;1311;47.966;7.958;2022-11-20T16:45:40;1.70;;;1.60;;
2602;SDS011;1311;47.966;7.958;2022-11-20T16:48:12;1.60;;;1.40;;
2602;SDS011;1311;47.966;7.958;2022-11-20T16:50:44;1.57;;;1.47;;
2602;SDS011;1311;47.966;7.958;2022-11-20T16:53:13;1.83;;;1.20;;
2602;SDS011;1311;47.966;7.958;2022-11-20T16:55:39;1.70;;;1.60;;
2602;SDS011;1311;47.966;7.958;2022-11-20T16:58:06;1.50;;;1.40;;
2602;SDS011;1311;47.966;7.958;2022-11-20T17:00:34;1.77;;;1.67;;
2602;SDS011;1311;47.966;7.958;2022-11-20T17:03:03;1.67;;;1.57;;
2602;SDS011;1311;47.966;7.958;2022-11-20T17:05:30;2.43;;;1.70;;
2602;SDS011;1311;47.966;7.958;2022-11-20T17:07:57;1.40;;;1.30;;
2602;SDS011;1311;47.966;7.958;2022-11-20T17:10:24;1.73;;;1.40;;
2602;SDS011;1311;47.966;7.958;2022-11-20T17:12:50;2.07;;;1.40;;
2602;SDS011;1311;47.966;7.958;2022-11-20T17:15:17;1.63;;;1.53;;
2602;SDS011;1311;47.966;7.958;2022-11-20T17:17:44;4.30;;;1.70;;
2602;SDS011;1311;47.966;7.958;2022-11-20T17:20:12;2.93;;;1.83;;
2602;SDS011;1311;47.966;7.958;2022-11-20T17:22:39;1.30;;;1.20;;
2602;SDS011;1311;47.966;7.958;2022-11-20T17:25:06;1.50;;;1.20;;
2602;SDS011;1311;47.966;7.958;2022-11-20T17:27:33;1.20;;;1.10;;
2602;SDS011;1311;47.966;7.958;2022-11-20T17:30:00;1.80;;;1.70;;
2602;SDS011;1311;47.966;7.958;2022-11-20T17:32:27;1.70;;;1.47;;
2602;SDS011;1311;47.966;7.958;2022-11-20T17:34:53;1.53;;;1.43;;
2602;SDS011;1311;47.966;7.958;2022-11-20T17:37:24;1.67;;;1.57;;
2602;SDS011;1311;47.966;7.958;2022-11-20T17:39:50;1.50;;;1.40;;
2602;SDS011;1311;47.966;7.958;2022-11-20T17:42:17;1.47;;;1.37;;
2602;SDS011;1311;47.966;7.958;2022-11-20T17:44:53;1.43;;;1.30;;
2602;SDS011;1311;47.966;7.958;2022-11-20T17:47:22;1.80;;;1.60;;
2602;SDS011;1311;47.966;7.958;2022-11-20T17:49:49;1.47;;;1.37;;
2602;SDS011;1311;47.966;7.958;2022-11-20T17:52:17;1.53;;;1.40;;
2602;SDS011;1311;47.966;7.958;2022-11-20T17:54:45;1.77;;;1.27;;
2602;SDS011;1311;47.966;7.958;2022-11-20T17:57:12;2.07;;;1.40;;
2602;SDS011;1311;47.966;7.958;2022-11-20T17:59:56;1.50;;;1.40;;
2602;SDS011;1311;47.966;7.958;2022-11-20T18:02:23;1.37;;;1.27;;
2602;SDS011;1311;47.966;7.958;2022-11-20T18:04:49;1.67;;;1.57;;
2602;SDS011;1311;47.966;7.958;2022-11-20T18:07:16;1.63;;;1.20;;
2602;SDS011;1311;47.966;7.958;2022-11-20T18:09:43;3.37;;;1.60;;
2602;SDS011;1311;47.966;7.958;2022-11-20T18:12:11;1.47;;;1.30;;
2602;SDS011;1311;47.966;7.958;2022-11-20T18:14:38;1.33;;;1.23;;
2602;SDS011;1311;47.966;7.958;2022-11-20T18:17:07;1.50;;;1.40;;
2602;SDS011;1311;47.966;7.958;2022-11-20T18:19:37;1.47;;;1.37;;
2602;SDS011;1311;47.966;7.958;2022-11-20T18:22:05;1.07;;;1.00;;
2602;SDS011;1311;47.966;7.958;2022-11-20T18:24:32;1.53;;;1.20;;
2602;SDS011;1311;47.966;7.958;2022-11-20T18:27:00;1.30;;;1.20;;
2602;SDS011;1311;47.966;7.958;2022-11-20T18:29:29;1.47;;;1.33;;
2602;SDS011;1311;47.966;7.958;2022-11-20T18:31:56;1.37;;;1.20;;
2602;SDS011;1311;47.966;7.958;2022-11-20T18:34:23;1.60;;;1.50;;
2602;SDS011;1311;47.966;7.958;2022-11-20T18:36:49;1.20;;;1.10;;
2602;SDS011;1311;47.966;7.958;2022-11-20T18:39:16;1.43;;;1.33;;
2602;SDS011;1311;47.966;7.958;2022-11-20T18:41:43;1.30;;;1.20;;
2602;SDS011;1311;47.966;7.958;2022-11-20T18:44:30;1.23;;;1.13;;
2602;SDS011;1311;47.966;7.958;2022-11-20T18:47:15;1.37;;;1.27;;
2602;SDS011;1311;47.966;7.958;2022-11-20T18:49:43;1.57;;;1.23;;
2602;SDS011;1311;47.966;7.958;2022-11-20T18:52:14;1.60;;;1.50;;
2602;SDS011;1311;47.966;7.958;2022-11-20T18:54:42;1.23;;;1.13;;
2602;SDS011;1311;47.966;7.958;2022-11-20T18:57:08;1.53;;;1.43;;
2602;SDS011;1311;47.966;7.958;2022-11-20T18:59:39;1.23;;;1.10;;
2602;SDS011;1311;47.966;7.958;2022-11-20T19:02:08;1.53;;;1.33;;
2602;SDS011;1311;47.966;7.958;2022-11-20T19:04:35;1.20;;;1.10;;
2602;SDS011;1311;47.966;7.958;2022-11-20T19:07:02;1.47;;;1.23;;
2602;SDS011;1311;47.966;7.958;2022-11-20T19:12:22;3.57;;;1.10;;
2602;SDS011;1311;47.966;7.958;2022-11-20T19:14:49;2.67;;;1.50;;
2602;SDS011;1311;47.966;7.958;2022-11-20T19:17:16;1.63;;;1.10;;
2602;SDS011;1311;47.966;7.958;2022-11-20T19:19:43;1.97;;;1.27;;
2602;SDS011;1311;47.966;7.958;2022-11-20T19:22:10;1.27;;;1.17;;
2602;SDS011;1311;47.966;7.958;2022-11-20T19:24:37;1.47;;;1.33;;
2602;SDS011;1311;47.966;7.958;2022-11-20T19:27:04;1.93;;;1.17;;
2602;SDS011;1311;47.966;7.958;2022-11-20T19:29:32;1.83;;;1.37;;
2602;SDS011;1311;47.966;7.958;2022-11-20T19:31:59;1.37;;;1.23;;
2602;SDS011;1311;47.966;7.958;2022-11-20T19:34:28;1.83;;;1.20;;
2602;SDS011;1311;47.966;7.958;2022-11-20T19:36:55;1.83;;;1.00;;
2602;SDS011;1311;47.966;7.958;2022-11-20T19:39:22;1.17;;;1.00;;
2602;SDS011;1311;47.966;7.958;2022-11-20T19:41:48;1.37;;;1.20;;
2602;SDS011;1311;47.966;7.958;2022-11-20T19:44:15;1.93;;;1.17;;
2602;SDS011;1311;47.966;7.958;2022-11-20T19:46:43;2.00;;;1.20;;
2602;SDS011;1311;47.966;7.958;2022-11-20T19:49:11;1.20;;;1.10;;
2602;SDS011;1311;47.966;7.958;2022-11-20T19:51:42;1.30;;;1.20;;
2602;SDS011;1311;47.966;7.958;2022-11-20T19:54:10;1.10;;;1.00;;
2602;SDS011;1311;47.966;7.958;2022-11-20T19:56:37;1.40;;;1.27;;
2602;SDS011;1311;47.966;7.958;2022-11-20T19:59:04;1.10;;;1.00;;
2602;SDS011;1311;47.966;7.958;2022-11-20T20:01:31;1.50;;;1.20;;
2602;SDS011;1311;47.966;7.958;2022-11-20T20:03:59;2.03;;;1.37;;
2602;SDS011;1311;47.966;7.958;2022-11-20T20:06:27;1.97;;;1.10;;
2602;SDS011;1311;47.966;7.958;2022-11-20T20:08:54;2.73;;;1.17;;
2602;SDS011;1311;47.966;7.958;2022-11-20T20:11:23;1.20;;;1.10;;
2602;SDS011;1311;47.966;7.958;2022-11-20T20:13:50;2.00;;;1.20;;
2602;SDS011;1311;47.966;7.958;2022-11-20T20:16:19;1.20;;;1.10;;
2602;SDS011;1311;47.966;7.958;2022-11-20T20:18:47;1.33;;;1.23;;
2602;SDS011;1311;47.966;7.958;2022-11-20T20:21:15;1.70;;;0.93;;
2602;SDS011;1311;47.966;7.958;2022-11-20T20:23:43;1.37;;;1.17;;
2602;SDS011;1311;47.966;7.958;2022-11-20T20:26:11;1.50;;;1.17;;
2602;SDS011;1311;47.966;7.958;2022-11-20T20:28:38;1.70;;;1.20;;
2602;SDS011;1311;47.966;7.958;2022-11-20T20:31:06;1.67;;;0.97;;
2602;SDS011;1311;47.966;7.958;2022-11-20T20:33:34;1.23;;;1.13;;
2602;SDS011;1311;47.966;7.958;2022-11-20T20:36:01;1.10;;;1.00;;
2602;SDS011;1311;47.966;7.958;2022-11-20T20:38:30;3.43;;;1.07;;
2602;SDS011;1311;47.966;7.958;2022-11-20T20:40:57;1.30;;;1.20;;
2602;SDS011;1311;47.966;7.958;2022-11-20T20:43:24;2.60;;;1.00;;
2602;SDS011;1311;47.966;7.958;2022-11-20T20:45:51;2.53;;;1.17;;
2602;SDS011;1311;47.966;7.958;2022-11-20T20:48:19;1.60;;;1.20;;
2602;SDS011;1311;47.966;7.958;2022-11-20T20:50:54;1.57;;;1.10;;
2602;SDS011;1311;47.966;7.958;2022-11-20T20:53:21;2.10;;;1.10;;
2602;SDS011;1311;47.966;7.958;2022-11-20T20:55:53;1.63;;;1.00;;
2602;SDS011;1311;47.966;7.958;2022-11-20T20:58:21;1.40;;;1.00;;
2602;SDS011;1311;47.966;7.958;2022-11-20T21:00:48;2.33;;;1.20;;
2602;SDS011;1311;47.966;7.958;2022-11-20T21:03:14;4.10;;;1.20;;
2602;SDS011;1311;47.966;7.958;2022-11-20T21:05:41;1.87;;;0.80;;
2602;SDS011;1311;47.966;7.958;2022-11-20T21:08:08;0.90;;;0.90;;
2602;SDS011;1311;47.966;7.958;2022-11-20T21:10:49;2.30;;;1.33;;
2602;SDS011;1311;47.966;7.958;2022-11-20T21:13:19;1.27;;;1.00;;
2602;SDS011;1311;47.966;7.958;2022-11-20T21:15:47;1.20;;;1.00;;
2602;SDS011;1311;47.966;7.958;2022-11-20T21:18:16;1.73;;;1.13;;
2602;SDS011;1311;47.966;7.958;2022-11-20T21:20:45;1.40;;;1.10;;
2602;SDS011;1311;47.966;7.958;2022-11-20T21:23:29;1.37;;;1.10;;
2602;SDS011;1311;47.966;7.958;2022-11-20T21:25:58;1.80;;;1.40;;
2602;SDS011;1311;47.966;7.958;2022-11-20T21:28:27;1.07;;;0.97;;
2602;SDS011;1311;47.966;7.958;2022-11-20T21:31:01;7.87;;;1.40;;
2602;SDS011;1311;47.966;7.958;2022-11-20T21:33:34;2.33;;;1.30;;
2602;SDS011;1311;47.966;7.958;2022-11-20T21:36:02;1.40;;;1.00;;
2602;SDS011;1311;47.966;7.958;2022-11-20T21:38:29;2.87;;;1.33;;
2602;SDS011;1311;47.966;7.958;2022-11-20T21:40:56;3.33;;;1.10;;
2602;SDS011;1311;47.966;7.958;2022-11-20T21:43:23;2.13;;;1.30;;
2602;SDS011;1311;47.966;7.958;2022-11-20T21:45:51;2.20;;;1.20;;
2602;SDS011;1311;47.966;7.958;2022-11-20T21:48:20;3.30;;;1.70;;
2602;SDS011;1311;47.966;7.958;2022-11-20T21:50:47;7.30;;;1.53;;
2602;SDS011;1311;47.966;7.958;2022-11-20T21:53:14;1.80;;;0.90;;
2602;SDS011;1311;47.966;7.958;2022-11-20T21:55:40;3.43;;;1.40;;
2602;SDS011;1311;47.966;7.958;2022-11-20T21:58:07;5.37;;;1.37;;
2602;SDS011;1311;47.966;7.958;2022-11-20T22:00:34;2.23;;;1.50;;
2602;SDS011;1311;47.966;7.958;2022-11-20T22:03:02;1.33;;;1.00;;
2602;SDS011;1311;47.966;7.958;2022-11-20T22:05:29;2.03;;;1.20;;
2602;SDS011;1311;47.966;7.958;2022-11-20T22:07:56;1.10;;;1.00;;
2602;SDS011;1311;47.966;7.958;2022-11-20T22:10:22;1.67;;;1.30;;
2602;SDS011;1311;47.966;7.958;2022-11-20T22:12:51;1.90;;;1.33;;
2602;SDS011;1311;47.966;7.958;2022-11-20T22:15:40;1.30;;;1.00;;
2602;SDS011;1311;47.966;7.958;2022-11-20T22:18:07;3.90;;;1.37;;
2602;SDS011;1311;47.966;7.958;2022-11-20T22:20:39;1.30;;;1.10;;
2602;SDS011;1311;47.966;7.958;2022-11-20T22:23:06;2.57;;;1.10;;
2602;SDS011;1311;47.966;7.958;2022-11-20T22:25:33;1.30;;;1.10;;
2602;SDS011;1311;47.966;7.958;2022-11-20T22:28:00;1.90;;;1.00;;
2602;SDS011;1311;47.966;7.958;2022-11-20T22:30:27;3.90;;;1.30;;
2602;SDS011;1311;47.966;7.958;2022-11-20T22:32:54;2.70;;;0.93;;
2602;SDS011;1311;47.966;7.958;2022-11-20T22:35:22;2.30;;;1.20;;
2602;SDS011;1311;47.966;7.958;2022-11-20T22:37:49;1.70;;;1.20;;
2602;SDS011;1311;47.966;7.958;2022-11-20T22:40:16;1.43;;;0.97;;
2602;SDS011;1311;47.966;7.958;2022-11-20T22:42:44;4.03;;;1.47;;
2602;SDS011;1311;47.966;7.958;2022-11-20T22:45:11;1.10;;;1.00;;
2602;SDS011;1311;47.966;7.958;2022-11-20T22:47:38;1.40;;;1.00;;
2602;SDS011;1311;47.966;7.958;2022-11-20T22:50:05;2.40;;;0.90;;
2602;SDS011;1311;47.966;7.958;2022-11-20T22:52:33;1.47;;;0.90;;
2602;SDS011;1311;47.966;7.958;2022-11-20T22:55:00;1.00;;;0.90;;
2602;SDS011;1311;47.966;7.958;2022-11-20T22:57:28;1.30;;;0.80;;
2602;SDS011;1311;47.966;7.958;2022-11-20T22:59:56;1.97;;;1.13;;
2602;SDS011;1311;47.966;7.958;2022-11-20T23:02:23;7.57;;;1.20;;
2602;SDS011;1311;47.966;7.958;2022-11-20T23:04:49;1.47;;;1.10;;
2602;SDS011;1311;47.966;7.958;2022-11-20T23:07:16;3.57;;;1.23;;
2602;SDS011;1311;47.966;7.958;2022-11-20T23:09:44;1.27;;;1.10;;
2602;SDS011;1311;47.966;7.958;2022-11-20T23:12:11;4.40;;;1.27;;
2602;SDS011;1311;47.966;7.958;2022-11-20T23:14:37;12.33;;;1.20;;
2602;SDS011;1311;47.966;7.958;2022-11-20T23:17:04;4.73;;;1.37;;
2602;SDS011;1311;47.966;7.958;2022-11-20T23:19:31;6.23;;;1.43;;
2602;SDS011;1311;47.966;7.958;2022-11-20T23:21:58;2.50;;;1.20;;
2602;SDS011;1311;47.966;7.958;2022-11-20T23:24:24;8.23;;;1.83;;
2602;SDS011;1311;47.966;7.958;2022-11-20T23:26:52;2.13;;;1.03;;
2602;SDS011;1311;47.966;7.958;2022-11-20T23:29:19;3.03;;;1.30;;
2602;SDS011;1311;47.966;7.958;2022-11-20T23:31:46;4.20;;;1.20;;
2602;SDS011;1311;47.966;7.958;2022-11-20T23:34:13;6.23;;;1.20;;
2602;SDS011;1311;47.966;7.958;2022-11-20T23:36:39;11.03;;;1.47;;
2602;SDS011;1311;47.966;7.958;2022-11-20T23:39:06;2.20;;;1.17;;
2602;SDS011;1311;47.966;7.958;2022-11-20T23:41:34;5.87;;;0.90;;
2602;SDS011;1311;47.966;7.958;2022-11-20T23:44:02;2.83;;;0.97;;
2602;SDS011;1311;47.966;7.958;2022-11-20T23:46:28;4.83;;;1.10;;
2602;SDS011;1311;47.966;7.958;2022-11-20T23:48:55;3.20;;;0.93;;
2602;SDS011;1311;47.966;7.958;2022-11-20T23:51:22;4.43;;;1.20;;
2602;SDS011;1311;47.966;7.958;2022-11-20T23:53:49;5.20;;;1.00;;
2602;SDS011;1311;47.966;7.958;2022-11-20T23:56:15;1.93;;;0.93;;
2602;SDS011;1311;47.966;7.958;2022-11-20T23:58:42;6.40;;;1.00;;
